Time;durP1;ratioP1;P1;durP2;ratioP2;P2;SDS_P1;SDS_P2;PMS_P1;PMS_P2;Temp;Humidity;BMP_temperature;BMP_pressure;BME280_temperature;BME280_humidity;BME280_pressure;Samples;Min_cycle;Max_cycle;Signal;HPM_P1;HPM_P2
2022/01/18 00:00:42;;;;;;;25.58;3.15;;;;;;;21.98;57.33;100967.47;7312107;19;129489;-39
2022/01/18 00:03:08;;;;;;;10.95;1.55;;;;;;;21.86;57.83;100951.69;7310725;19;130459;-40
2022/01/18 00:05:34;;;;;;;17.73;2.10;;;;;;;21.89;57.49;100964.56;7312066;19;128952;-40
2022/01/18 00:08:00;;;;;;;26.47;3.57;;;;;;;21.80;57.80;100949.47;7310091;19;129392;-41
2022/01/18 00:10:29;;;;;;;21.40;2.80;;;;;;;21.88;57.59;100962.03;7311619;19;130456;-39
2022/01/18 00:15:56;;;;;;;23.45;3.15;;;;;;;21.85;59.40;100955.22;7312420;19;131377;-39
2022/01/18 00:18:22;;;;;;;21.52;2.95;;;;;;;21.87;59.19;100961.19;7311362;19;129376;-39
2022/01/18 00:21:16;;;;;;;20.35;2.63;;;;;;;21.91;58.96;100962.63;7312245;19;130017;-38
2022/01/18 00:23:42;;;;;;;13.05;1.73;;;;;;;21.87;58.50;100971.66;7310903;19;130598;-39
2022/01/18 00:26:09;;;;;;;14.80;1.90;;;;;;;21.86;59.24;100972.63;7311177;19;128797;-39
2022/01/18 00:28:36;;;;;;;17.02;2.33;;;;;;;21.91;59.75;100980.97;7310763;19;128868;-40
2022/01/18 00:34:01;;;;;;;15.00;1.92;;;;;;;21.83;58.19;100979.84;7311623;19;129442;-39
2022/01/18 00:36:35;;;;;;;25.27;3.30;;;;;;;21.82;57.68;100986.84;7309908;19;129555;-41
2022/01/18 00:39:00;;;;;;;20.27;2.85;;;;;;;21.89;58.25;100984.66;7312654;19;129209;-40
2022/01/18 00:41:26;;;;;;;21.13;3.00;;;;;;;21.98;56.85;100988.41;7311233;19;153830;-39
2022/01/18 00:43:53;;;;;;;17.83;2.42;;;;;;;22.11;56.68;100994.44;7310098;19;130288;-39
2022/01/18 00:46:18;;;;;;;20.05;2.50;;;;;;;22.19;56.23;101005.22;7311129;19;128979;-40
2022/01/18 00:48:44;;;;;;;17.80;2.20;;;;;;;22.27;55.95;101000.25;7310055;19;129195;-40
2022/01/18 00:51:13;;;;;;;21.20;2.40;;;;;;;22.40;55.30;101006.28;7311997;19;130437;-39
2022/01/18 00:53:41;;;;;;;21.10;2.45;;;;;;;22.52;55.54;101008.03;7309413;19;131460;-39
2022/01/18 00:56:22;;;;;;;21.35;2.88;;;;;;;22.66;54.98;101007.91;7309635;19;129161;-39
2022/01/18 00:58:48;;;;;;;8.98;1.67;;;;;;;22.76;54.77;101014.13;7312228;19;129526;-39
2022/01/18 01:01:17;;;;;;;16.95;2.22;;;;;;;22.83;54.57;101025.84;7312469;19;130366;-40
2022/01/18 01:03:43;;;;;;;13.60;1.75;;;;;;;22.86;54.31;101030.84;7309957;19;129821;-39
2022/01/18 01:06:09;;;;;;;19.65;2.65;;;;;;;22.85;54.37;101029.19;7309912;19;130147;-39
2022/01/18 01:08:35;;;;;;;17.75;2.45;;;;;;;22.73;54.58;101032.69;7311552;19;129068;-38
2022/01/18 01:11:07;;;;;;;25.80;3.22;;;;;;;22.71;54.89;101026.75;7312001;19;131319;-40
2022/01/18 01:13:36;;;;;;;10.35;1.63;;;;;;;22.60;54.79;101035.41;7310284;19;130468;-39
2022/01/18 01:34:51;;;;;;;16.77;2.20;;;;;;;22.09;57.09;101061.81;7308861;19;130618;-41
2022/01/18 01:42:59;;;;;;;21.13;2.75;;;;;;;21.90;57.60;101060.47;7308226;19;129424;-39
2022/01/18 01:45:27;;;;;;;19.08;2.85;;;;;;;21.86;57.68;101055.56;7308707;19;130972;-39
2022/01/18 01:47:54;;;;;;;17.92;2.67;;;;;;;21.86;58.73;101059.03;7310504;19;129280;-40
2022/01/18 01:50:23;;;;;;;21.02;2.95;;;;;;;21.85;58.41;101056.47;7307484;19;129229;-40
2022/01/18 01:52:51;;;;;;;18.20;2.25;;;;;;;21.84;59.49;101058.28;7306486;19;132227;-39
2022/01/18 01:55:18;;;;;;;20.85;2.42;;;;;;;21.80;59.09;101048.94;7308398;19;130318;-39
2022/01/18 01:57:44;;;;;;;16.13;2.13;;;;;;;21.89;59.61;101055.34;7309763;19;130338;-41
2022/01/18 02:00:13;;;;;;;23.00;2.95;;;;;;;21.86;58.12;101059.03;7309588;19;128962;-41
2022/01/18 02:02:39;;;;;;;24.17;2.95;;;;;;;21.84;58.08;101058.28;7308944;19;129955;-39
2022/01/18 02:05:06;;;;;;;15.02;1.98;;;;;;;21.79;57.96;101047.28;7308777;19;158393;-40
2022/01/18 02:07:31;;;;;;;20.15;2.58;;;;;;;21.88;57.31;101051.88;7317544;19;128923;-39
2022/01/18 02:09:57;;;;;;;17.13;2.17;;;;;;;21.94;57.55;101063.72;7315539;19;154184;-40
2022/01/18 02:12:22;;;;;;;22.77;2.80;;;;;;;22.06;57.25;101059.41;7314282;19;130250;-40
2022/01/18 02:14:54;;;;;;;18.70;2.45;;;;;;;22.12;56.81;101064.22;7314390;19;130775;-39
2022/01/18 02:22:49;;;;;;;18.75;2.40;;;;;;;22.48;55.52;101051.13;7316522;19;129902;-39
2022/01/18 02:25:14;;;;;;;20.05;2.33;;;;;;;22.62;54.98;101053.63;7314263;19;131990;-41
2022/01/18 02:27:40;;;;;;;18.90;2.58;;;;;;;22.74;54.69;101058.81;7315125;19;150353;-38
2022/01/18 02:30:06;;;;;;;16.27;2.00;;;;;;;22.84;53.99;101061.63;7316972;19;129030;-41
2022/01/18 02:32:31;;;;;;;20.67;2.63;;;;;;;22.79;54.26;101051.44;7315642;19;130904;-39
2022/01/18 02:34:56;;;;;;;15.05;2.10;;;;;;;22.84;54.28;101051.94;7312278;19;158749;-40
2022/01/18 02:37:21;;;;;;;20.13;2.83;;;;;;;22.80;54.09;101049.66;7313511;19;155725;-39
2022/01/18 02:39:46;;;;;;;12.05;1.85;;;;;;;22.72;54.65;101038.91;7315550;19;153059;-41
2022/01/18 02:42:15;;;;;;;24.38;3.10;;;;;;;22.70;54.86;101036.41;7314930;19;159022;-39
2022/01/18 02:44:41;;;;;;;18.17;2.35;;;;;;;22.65;54.88;101021.94;7313540;19;130937;-39
2022/01/18 02:47:06;;;;;;;14.20;2.08;;;;;;;22.50;55.36;101012.53;7315877;19;129130;-40
2022/01/18 02:49:33;;;;;;;14.10;1.85;;;;;;;22.49;55.74;101021.34;7315278;19;130070;-40
2022/01/18 02:51:59;;;;;;;22.42;2.83;;;;;;;22.42;55.25;101025.34;7314444;19;130773;-39
2022/01/18 02:54:24;;;;;;;13.57;2.33;;;;;;;22.37;56.22;101033.56;7312709;19;129489;-38
2022/01/18 02:56:56;;;;;;;36.38;4.45;;;;;;;22.29;56.31;101029.81;7313476;19;128937;-40
2022/01/18 03:05:07;;;;;;;24.60;3.03;;;;;;;22.08;57.10;101036.56;7312222;19;129375;-39
2022/01/18 03:07:33;;;;;;;17.33;2.42;;;;;;;22.05;56.68;101037.59;7313607;19;129081;-39
2022/01/18 03:09:58;;;;;;;16.70;2.25;;;;;;;21.96;57.42;101039.09;7314317;19;129519;-39
2022/01/18 03:12:24;;;;;;;25.65;3.13;;;;;;;21.91;57.28;101040.38;7313177;19;130255;-41
2022/01/18 03:14:49;;;;;;;22.30;2.75;;;;;;;21.85;57.98;101036.38;7311939;19;129770;-38
2022/01/18 03:17:14;;;;;;;26.60;3.00;;;;;;;21.85;57.75;101030.31;7310209;19;155164;-39
2022/01/18 03:19:40;;;;;;;19.35;2.70;;;;;;;21.83;58.24;101027.78;7313672;19;154785;-39
2022/01/18 03:22:06;;;;;;;11.05;1.73;;;;;;;21.84;59.56;101021.63;7311537;19;158392;-40
2022/01/18 03:25:26;;;;;;;16.88;2.13;;;;;;;21.86;58.53;101022.38;7312386;19;130341;-39
2022/01/18 03:30:04;;;;;;;21.58;2.85;;;;;;;21.77;58.27;101004.66;7314177;19;128954;-41
2022/01/18 03:32:29;;;;;;;23.30;3.03;;;;;;;21.87;57.64;101028.41;7313879;19;130452;-39
2022/01/18 03:34:55;;;;;;;33.05;3.88;;;;;;;22.02;57.14;101026.50;7309925;19;129626;-39
2022/01/18 03:37:20;;;;;;;17.05;2.25;;;;;;;22.01;57.04;101019.59;7311322;19;155096;-39
2022/01/18 03:39:45;;;;;;;18.17;2.35;;;;;;;22.11;56.47;101036.34;7313517;19;129171;-40
2022/01/18 03:44:58;;;;;;;23.95;2.90;;;;;;;22.39;55.96;101049.16;7310088;19;129317;-41
2022/01/18 03:47:23;;;;;;;17.42;2.42;;;;;;;22.52;55.52;101052.59;7314457;19;131390;-39
2022/01/18 03:49:49;;;;;;;14.52;1.88;;;;;;;22.60;55.31;101050.28;7314121;19;129998;-41
2022/01/18 03:52:14;;;;;;;15.00;2.08;;;;;;;22.73;54.73;101059.78;7311884;19;159692;-40
2022/01/18 03:54:43;;;;;;;20.17;2.47;;;;;;;22.92;54.28;101056.66;7309609;19;158600;-39
2022/01/18 03:57:10;;;;;;;15.20;2.25;;;;;;;23.17;53.59;101061.75;7310530;19;128981;-39
2022/01/18 03:59:35;;;;;;;14.40;1.85;;;;;;;23.42;52.53;101056.34;7314154;19;129009;-40
2022/01/18 04:02:01;;;;;;;21.42;2.65;;;;;;;23.64;52.50;101056.41;7313108;19;129435;-38
2022/01/18 04:04:26;;;;;;;19.85;2.65;;;;;;;23.82;51.68;101052.34;7310530;19;129916;-40
2022/01/18 04:06:51;;;;;;;19.38;2.35;;;;;;;23.95;51.67;101060.94;7314057;19;129929;-39
2022/01/18 04:09:19;;;;;;;16.27;2.42;;;;;;;24.00;50.89;101069.34;7310432;19;154340;-40
2022/01/18 04:11:44;;;;;;;23.40;3.03;;;;;;;24.13;50.41;101067.44;7312561;19;130368;-42
2022/01/18 04:14:09;;;;;;;28.00;3.60;;;;;;;24.18;50.92;101061.81;7311271;19;129834;-38
2022/01/18 04:16:42;;;;;;;19.33;2.40;;;;;;;24.17;50.66;101055.72;7313085;19;129347;-40
2022/01/18 04:25:46;;;;;;;21.42;2.72;;;;;;;24.28;50.45;101062.75;7313283;19;129158;-41
2022/01/18 04:27:24;;;;;;;17.90;2.25;;;;;;;24.26;50.29;101065.50;7313461;19;129036;-40
2022/01/18 04:29:50;;;;;;;20.90;2.92;;;;;;;24.37;50.13;101068.13;7312823;19;129109;-38
2022/01/18 04:32:15;;;;;;;19.33;2.43;;;;;;;24.29;50.39;101070.53;7310407;19;158062;-39
2022/01/18 04:34:40;;;;;;;14.52;2.22;;;;;;;24.30;50.79;101081.88;7307959;19;143681;-42
2022/01/18 04:37:06;;;;;;;14.48;1.85;;;;;;;24.29;50.85;101086.31;7310983;19;128988;-39
2022/01/18 04:39:37;;;;;;;12.27;1.52;;;;;;;24.19;50.49;101098.50;7313523;19;129031;-39
2022/01/18 04:42:03;;;;;;;30.05;3.53;;;;;;;24.16;50.72;101095.28;7311785;19;130546;-39
2022/01/18 04:48:25;;;;;;;12.65;1.92;;;;;;;24.00;51.37;101095.63;7309155;19;129308;-39
2022/01/18 04:50:06;;;;;;;17.33;2.30;;;;;;;23.86;51.37;101097.59;7310770;19;130201;-39
2022/01/18 04:52:31;;;;;;;18.45;2.25;;;;;;;23.80;51.74;101098.91;7311010;19;129243;-39
2022/01/18 04:55:00;;;;;;;17.52;2.28;;;;;;;23.68;52.56;101104.28;7306235;19;158884;-39
2022/01/18 05:00:09;;;;;;;26.20;2.95;;;;;;;23.49;52.74;101109.22;7312331;19;129195;-39
2022/01/18 05:02:35;;;;;;;21.73;2.80;;;;;;;23.39;52.73;101101.19;7310239;19;130271;-39
2022/01/18 05:05:00;;;;;;;27.83;3.15;;;;;;;23.19;53.14;101093.94;7304423;19;158681;-39
2022/01/18 05:07:25;;;;;;;19.08;2.78;;;;;;;23.16;53.85;101117.78;7308227;19;154535;-40
2022/01/18 05:09:52;;;;;;;15.60;1.90;;;;;;;23.03;53.89;101101.28;7309082;19;154265;-38
2022/01/18 05:12:29;;;;;;;21.63;2.80;;;;;;;23.00;54.15;101117.25;7309315;19;130293;-41
2022/01/18 05:14:54;;;;;;;18.77;2.50;;;;;;;22.92;54.06;101109.09;7308227;19;131162;-40
2022/01/18 05:19:59;;;;;;;15.77;2.03;;;;;;;22.75;54.42;101109.47;7310031;19;154824;-39
2022/01/18 05:25:08;;;;;;;18.63;2.42;;;;;;;22.58;54.95;101129.03;7305626;19;132591;-41
2022/01/18 05:27:33;;;;;;;18.08;2.50;;;;;;;22.49;52.58;101127.03;7308919;19;143606;-38
2022/01/18 05:29:59;;;;;;;21.10;3.38;;;;;;;22.35;50.83;101126.31;7309676;19;154758;-39
2022/01/18 05:32:24;;;;;;;25.88;3.28;;;;;;;22.26;50.76;101126.97;7308519;19;159028;-40
2022/01/18 05:34:49;;;;;;;13.23;2.27;;;;;;;22.16;51.22;101134.63;7305117;19;158514;-39
2022/01/18 05:37:15;;;;;;;18.60;2.97;;;;;;;22.12;50.68;101132.31;7308300;19;129191;-41
2022/01/18 05:39:41;;;;;;;26.63;3.63;;;;;;;22.10;52.12;101137.66;7306643;19;129523;-40
2022/01/18 05:42:06;;;;;;;22.83;3.33;;;;;;;22.09;52.72;101132.53;7309026;19;145712;-38
2022/01/18 05:44:32;;;;;;;20.45;3.00;;;;;;;22.13;53.49;101128.75;7306670;19;129150;-40
2022/01/18 05:46:57;;;;;;;18.23;2.80;;;;;;;22.19;53.11;101123.09;7307765;19;129255;-40
2022/01/18 05:49:22;;;;;;;20.27;2.95;;;;;;;22.25;53.65;101117.41;7308525;19;153401;-39
2022/01/18 05:51:48;;;;;;;23.77;3.55;;;;;;;22.33;53.52;101125.59;7307395;19;158533;-39
2022/01/18 05:54:13;;;;;;;40.53;5.60;;;;;;;22.40;53.09;101137.31;7308022;19;130871;-41
2022/01/18 05:56:39;;;;;;;23.20;3.28;;;;;;;22.54;52.67;101139.84;7308674;19;128984;-40
2022/01/18 05:59:06;;;;;;;24.17;3.43;;;;;;;22.74;52.41;101141.91;7309796;19;129039;-40
2022/01/18 06:01:34;;;;;;;24.95;3.95;;;;;;;22.89;52.20;101135.56;7308927;19;130912;-41
2022/01/18 06:09:10;;;;;;;17.00;2.70;;;;;;;23.22;51.26;101138.34;7310160;19;129368;-40
2022/01/18 06:11:36;;;;;;;7.22;1.80;;;;;;;23.27;51.42;101145.91;7309251;19;129212;-39
2022/01/18 06:14:01;;;;;;;18.60;2.50;;;;;;;23.36;51.01;101146.06;7306770;19;153279;-39
2022/01/18 06:16:27;;;;;;;21.65;3.15;;;;;;;23.47;51.14;101138.22;7306086;19;154712;-39
2022/01/18 06:18:53;;;;;;;21.95;3.25;;;;;;;23.47;51.36;101143.47;7308305;19;129565;-39
2022/01/18 06:21:19;;;;;;;25.67;3.53;;;;;;;23.56;51.01;101144.56;7306135;19;130303;-40
2022/01/18 06:23:44;;;;;;;23.23;3.05;;;;;;;23.48;50.91;101139.91;7307776;19;129350;-41
2022/01/18 06:26:14;;;;;;;29.15;3.40;;;;;;;23.43;51.08;101142.03;7304694;19;157359;-39
2022/01/18 06:28:39;;;;;;;10.05;2.03;;;;;;;23.40;51.32;101151.91;7310522;19;129241;-39
2022/01/18 06:31:05;;;;;;;15.45;2.17;;;;;;;23.35;52.21;101148.78;7305643;19;159502;-39
2022/01/18 06:33:30;;;;;;;23.40;3.40;;;;;;;23.33;51.97;101161.19;7305559;19;143298;-40
2022/01/18 06:35:55;;;;;;;16.35;2.42;;;;;;;23.33;51.57;101166.44;7305412;19;154505;-39
2022/01/18 06:38:20;;;;;;;27.95;3.83;;;;;;;23.37;51.94;101162.66;7306371;19;153973;-39
2022/01/18 06:40:47;;;;;;;32.65;4.25;;;;;;;23.32;52.32;101168.22;7306054;19;159181;-39
2022/01/18 06:43:12;;;;;;;;;;;;;;;23.39;51.85;101176.50;7306976;19;130830;-40
2022/01/18 06:45:38;;;;;;;17.13;2.43;;;;;;;23.36;52.14;101156.56;7306608;19;155642;-38
2022/01/18 06:48:03;;;;;;;24.90;3.15;;;;;;;23.46;51.92;101173.31;7307648;19;129433;-38
2022/01/18 06:50:28;;;;;;;22.85;3.17;;;;;;;23.50;51.43;101180.00;7310020;19;129470;-39
2022/01/18 06:52:54;;;;;;;19.42;2.67;;;;;;;23.48;51.43;101179.28;7312907;19;156568;-40
2022/01/18 06:55:19;;;;;;;45.83;5.07;;;;;;;23.57;51.52;101186.47;7313749;19;138261;-39
2022/01/18 06:57:45;;;;;;;26.80;3.37;;;;;;;23.57;51.27;101186.47;7312967;19;140368;-39
2022/01/18 07:00:10;;;;;;;27.33;3.78;;;;;;;23.53;51.84;101190.28;7311333;19;159016;-39
2022/01/18 07:02:36;;;;;;;16.42;2.70;;;;;;;23.61;51.94;101189.69;7313584;19;130999;-39
2022/01/18 07:05:01;;;;;;;17.15;2.38;;;;;;;23.58;51.86;101193.41;7312585;19;146124;-38
2022/01/18 07:07:26;;;;;;;20.20;3.00;;;;;;;23.59;52.03;101200.31;7312469;19;153845;-39
2022/01/18 07:09:52;;;;;;;27.10;3.50;;;;;;;23.50;52.02;101197.53;7314173;19;130158;-39
2022/01/18 07:12:18;;;;;;;27.27;3.40;;;;;;;23.55;51.97;101203.28;7310741;19;158730;-38
2022/01/18 07:14:44;;;;;;;26.87;3.47;;;;;;;23.48;52.32;101208.16;7310196;19;128981;-40
2022/01/18 07:17:10;;;;;;;28.63;3.73;;;;;;;23.43;51.76;101218.16;7310944;19;130139;-39
2022/01/18 07:19:37;;;;;;;23.25;3.15;;;;;;;23.44;52.14;101213.72;7312770;19;129403;-38
2022/01/18 07:22:02;;;;;;;29.40;3.38;;;;;;;23.37;52.33;101223.00;7310653;19;132356;-40
2022/01/18 07:24:42;;;;;;;23.23;3.10;;;;;;;23.24;52.07;101202.03;7310430;19;129566;-38
2022/01/18 07:27:10;;;;;;;18.85;2.50;;;;;;;23.31;52.26;101221.66;7314576;19;129210;-40
2022/01/18 07:29:36;;;;;;;20.27;2.67;;;;;;;23.27;52.90;101225.44;7313417;19;129817;-38
2022/01/18 07:32:02;;;;;;;17.38;2.55;;;;;;;23.28;52.62;101232.38;7313222;19;132133;-39
2022/01/18 07:34:27;;;;;;;17.67;2.47;;;;;;;23.27;53.07;101224.63;7312411;19;129232;-39
2022/01/18 07:36:53;;;;;;;24.27;3.28;;;;;;;23.24;53.12;101238.75;7310940;19;129098;-39
2022/01/18 07:39:18;;;;;;;19.10;2.63;;;;;;;23.15;52.55;101210.56;7312566;19;158050;-39
2022/01/18 07:41:43;;;;;;;16.77;2.13;;;;;;;23.25;53.17;101235.22;7312489;19;158541;-39
2022/01/18 07:44:08;;;;;;;15.27;2.42;;;;;;;23.29;52.57;101239.31;7310020;19;155312;-40
2022/01/18 07:46:34;;;;;;;21.10;2.67;;;;;;;23.24;52.48;101238.75;7311535;19;154088;-39
2022/01/18 07:48:59;;;;;;;21.85;3.20;;;;;;;23.28;53.16;101232.38;7311931;19;159738;-39
2022/01/18 07:51:24;;;;;;;21.35;2.80;;;;;;;23.21;52.89;101223.25;7311776;19;158307;-39
2022/01/18 07:53:50;;;;;;;21.35;3.17;;;;;;;23.32;53.13;101248.75;7310928;19;155162;-39
2022/01/18 07:56:15;;;;;;;17.08;2.40;;;;;;;23.31;52.64;101253.16;7313225;19;128904;-40
2022/01/18 07:58:40;;;;;;;17.73;2.45;;;;;;;23.27;52.88;101246.44;7313516;19;129612;-38
2022/01/18 08:01:06;;;;;;;20.58;3.03;;;;;;;23.31;53.10;101253.16;7310938;19;160041;-41
2022/01/18 08:03:33;;;;;;;20.35;2.47;;;;;;;23.23;53.27;101251.06;7310503;19;130790;-40
2022/01/18 08:05:58;;;;;;;24.25;3.28;;;;;;;23.19;53.52;101259.25;7312122;19;130240;-39
2022/01/18 08:08:26;;;;;;;19.38;2.60;;;;;;;23.20;53.22;101255.69;7313372;19;129861;-39
2022/01/18 08:10:51;;;;;;;15.95;2.42;;;;;;;23.15;53.58;101257.81;7313836;19;130363;-39
2022/01/18 08:13:16;;;;;;;14.63;2.30;;;;;;;23.12;53.50;101264.09;7309884;19;155580;-39
2022/01/18 08:15:44;;;;;;;14.33;2.10;;;;;;;23.10;53.55;101265.16;7311238;19;129419;-40
2022/01/18 08:18:14;;;;;;;22.13;3.33;;;;;;;23.12;53.73;101273.78;7310326;19;131771;-38
2022/01/18 08:20:40;;;;;;;18.05;2.42;;;;;;;23.02;53.73;101252.56;7313246;19;129768;-38
2022/01/18 08:23:06;;;;;;;16.80;2.55;;;;;;;23.14;53.20;101267.44;7310899;19;132495;-40
2022/01/18 08:25:31;;;;;;;15.67;2.20;;;;;;;23.18;53.06;101278.56;7312214;19;128990;-38
2022/01/18 08:27:57;;;;;;;22.75;3.25;;;;;;;23.16;53.36;101277.84;7310901;19;158228;-39
2022/01/18 08:30:23;;;;;;;21.90;2.90;;;;;;;23.17;53.33;101282.16;7312641;19;130705;-39
2022/01/18 08:32:49;;;;;;;21.43;2.83;;;;;;;23.18;52.94;101289.06;7312617;19;130642;-39
2022/01/18 08:35:16;;;;;;;18.73;2.78;;;;;;;23.20;53.50;101287.19;7311547;19;130018;-40
2022/01/18 08:37:41;;;;;;;9.75;1.38;;;;;;;23.19;53.61;101285.47;7310541;19;131929;-37
2022/01/18 08:40:07;;;;;;;27.77;3.67;;;;;;;23.12;52.89;101271.16;7309896;19;129607;-38
2022/01/18 08:42:33;;;;;;;19.27;2.63;;;;;;;23.20;53.19;101292.44;7310716;19;129570;-40
2022/01/18 08:44:58;;;;;;;19.40;2.43;;;;;;;23.21;53.15;101294.09;7309223;19;129234;-40
2022/01/18 08:47:24;;;;;;;18.05;2.75;;;;;;;23.16;53.02;101297.06;7310526;19;130252;-38
2022/01/18 08:49:49;;;;;;;14.25;2.13;;;;;;;23.21;53.38;101313.31;7310371;19;130276;-39
2022/01/18 08:52:15;;;;;;;24.90;3.15;;;;;;;23.14;53.05;101298.09;7309516;19;129622;-42
2022/01/18 08:54:42;;;;;;;21.17;2.53;;;;;;;23.17;53.66;101306.59;7309247;19;128956;-39
2022/01/18 08:57:07;;;;;;;18.73;2.83;;;;;;;23.13;53.52;101317.41;7309226;19;130466;-41
2022/01/18 08:59:35;;;;;;;12.80;1.85;;;;;;;23.02;53.07;101314.72;7309663;19;142095;-41
2022/01/18 09:02:02;;;;;;;19.10;2.63;;;;;;;23.07;53.24;101323.09;7310717;19;128960;-39
2022/01/18 09:04:27;;;;;;;22.48;3.08;;;;;;;23.01;53.38;101313.00;7307829;19;128910;-39
2022/01/18 09:06:53;;;;;;;20.83;2.78;;;;;;;23.10;53.64;101338.63;7309821;19;151167;-39
2022/01/18 09:09:19;;;;;;;30.77;4.28;;;;;;;23.11;53.74;101342.91;7309212;19;146436;-39
2022/01/18 09:11:45;;;;;;;9.27;1.60;;;;;;;23.12;53.91;101336.75;7310140;19;130051;-41
2022/01/18 09:14:12;;;;;;;20.05;2.47;;;;;;;23.11;53.78;101335.03;7307465;19;128993;-40
2022/01/18 09:16:37;;;;;;;16.85;2.47;;;;;;;23.14;53.27;101340.06;7309219;19;129530;-39
2022/01/18 09:19:04;;;;;;;25.05;3.03;;;;;;;23.12;53.47;101348.06;7309839;19;129229;-38
2022/01/18 09:21:32;;;;;;;27.77;3.85;;;;;;;23.10;53.36;101333.38;7309622;19;129885;-39
2022/01/18 09:23:58;;;;;;;15.43;2.15;;;;;;;23.16;52.97;101339.03;7310547;19;129195;-38
2022/01/18 09:26:23;;;;;;;17.63;3.10;;;;;;;23.08;53.48;101327.41;7308155;19;130220;-39
2022/01/18 09:28:48;;;;;;;15.18;2.35;;;;;;;23.19;53.23;101343.22;7310003;19;158822;-39
2022/01/18 09:31:13;;;;;;;30.50;3.67;;;;;;;23.11;53.75;101345.53;7307529;19;154478;-38
2022/01/18 09:33:40;;;;;;;21.63;2.67;;;;;;;23.18;53.34;101352.03;7307569;19;153500;-38
2022/01/18 09:36:05;;;;;;;12.07;1.77;;;;;;;23.17;53.53;101355.63;7308126;19;129172;-39
2022/01/18 09:38:30;;;;;;;20.50;2.90;;;;;;;23.11;53.73;101359.50;7307983;19;130399;-39
2022/01/18 09:40:58;;;;;;;19.80;2.65;;;;;;;23.09;53.48;101357.91;7309727;19;129054;-40
2022/01/18 09:43:23;;;;;;;27.25;3.38;;;;;;;23.08;53.54;101366.75;7310177;19;129192;-39
2022/01/18 09:45:48;;;;;;;17.85;2.38;;;;;;;23.04;53.71;101365.25;7309829;19;130322;-41
2022/01/18 09:48:16;;;;;;;12.75;1.73;;;;;;;23.03;53.78;101368.84;7310952;19;130369;-40
2022/01/18 09:50:44;;;;;;;21.48;2.97;;;;;;;22.97;54.02;101375.34;7308903;19;129300;-40
2022/01/18 09:53:11;;;;;;;35.15;4.55;;;;;;;23.01;53.68;101378.59;7306791;19;130042;-39
2022/01/18 09:55:37;;;;;;;;;;;;;;;22.99;53.79;101372.66;7306874;19;130359;-39
2022/01/18 09:58:06;;;;;;;18.92;2.35;;;;;;;23.00;53.59;101369.06;7308795;19;130370;-40
2022/01/18 10:00:32;;;;;;;22.38;2.97;;;;;;;23.04;53.55;101365.25;7308318;19;129336;-39
2022/01/18 10:02:58;;;;;;;20.10;2.38;;;;;;;23.06;54.03;101363.38;7309255;19;130954;-39
2022/01/18 10:05:30;;;;;;;19.23;2.20;;;;;;;23.07;53.29;101359.84;7309938;19;130700;-38
2022/01/18 10:07:57;;;;;;;14.93;2.20;;;;;;;23.10;53.54;101359.63;7308982;19;129539;-38
2022/01/18 10:10:36;;;;;;;16.75;2.30;;;;;;;23.07;53.71;101371.16;7310468;19;128900;-39
2022/01/18 10:13:01;;;;;;;14.68;2.38;;;;;;;23.08;53.38;101366.75;7309018;19;129228;-38
2022/01/18 10:15:26;;;;;;;19.50;2.47;;;;;;;23.08;54.08;101362.34;7308192;19;150330;-39
2022/01/18 10:18:03;;;;;;;19.60;2.67;;;;;;;23.01;53.38;101349.75;7307303;19;130427;-40
2022/01/18 10:20:28;;;;;;;20.67;3.15;;;;;;;23.08;53.85;101361.50;7310622;19;129202;-38
2022/01/18 10:22:54;;;;;;;19.27;2.35;;;;;;;23.06;53.68;101352.88;7308170;19;155049;-39
2022/01/18 10:25:33;;;;;;;14.32;1.90;;;;;;;23.00;53.58;101354.19;7310297;19;129744;-39
2022/01/18 10:27:58;;;;;;;20.85;2.78;;;;;;;23.00;53.82;101348.06;7316720;19;130375;-40
2022/01/18 10:30:38;;;;;;;23.48;3.03;;;;;;;22.89;53.69;101338.31;7314583;19;151275;-39
2022/01/18 10:33:18;;;;;;;23.40;2.97;;;;;;;22.98;54.33;101349.97;7315812;19;130194;-39
2022/01/18 10:36:12;;;;;;;18.80;2.33;;;;;;;22.84;54.14;101342.22;7315819;19;130886;-39
2022/01/18 10:38:43;;;;;;;17.02;2.28;;;;;;;22.91;54.67;101362.66;7314000;19;130330;-38
2022/01/18 10:41:22;;;;;;;10.35;1.88;;;;;;;22.90;53.86;101368.00;7315785;19;129003;-38
2022/01/18 10:44:06;;;;;;;18.05;2.35;;;;;;;22.97;54.38;101351.72;7314954;19;129746;-39
2022/01/18 10:46:50;;;;;;;18.67;2.60;;;;;;;22.95;53.75;101350.19;7314856;19;130297;-40
2022/01/18 10:49:39;;;;;;;16.40;1.95;;;;;;;22.94;54.51;101348.50;7315675;19;129512;-41
2022/01/18 10:52:11;;;;;;;14.65;1.80;;;;;;;22.98;54.27;101342.94;7313883;19;129006;-42
2022/01/18 10:54:45;;;;;;;13.27;2.08;;;;;;;23.04;54.19;101346.91;7312913;19;129274;-39
2022/01/18 10:57:16;;;;;;;19.10;2.53;;;;;;;23.02;54.30;101347.00;7315410;19;129766;-41
2022/01/18 10:59:41;;;;;;;16.15;2.38;;;;;;;23.00;53.36;101334.97;7315743;19;130037;-40
2022/01/18 11:02:16;;;;;;;20.95;2.95;;;;;;;23.07;53.62;101354.59;7315563;19;129828;-39
2022/01/18 11:04:51;;;;;;;24.27;3.30;;;;;;;23.07;53.99;101349.34;7311835;19;130760;-40
2022/01/18 11:07:20;;;;;;;17.35;2.20;;;;;;;23.02;53.83;101338.31;7315054;19;129557;-39
2022/01/18 11:09:46;;;;;;;19.15;2.55;;;;;;;23.01;53.83;101341.88;7314487;19;130618;-39
2022/01/18 11:12:12;;;;;;;4.35;1.02;;;;;;;23.01;54.34;101345.34;7314427;19;129181;-39
2022/01/18 11:14:45;;;;;;;19.50;2.63;;;;;;;22.98;54.28;101339.47;7311906;19;129702;-38
2022/01/18 11:17:22;;;;;;;19.45;2.65;;;;;;;22.94;54.37;101338.03;7315103;19;132099;-39
2022/01/18 11:19:50;;;;;;;17.63;2.35;;;;;;;22.91;54.48;101341.69;7313977;19;130543;-39
2022/01/18 11:22:16;;;;;;;10.93;1.60;;;;;;;22.92;54.05;101350.41;7314094;19;129046;-39
2022/01/18 11:24:43;;;;;;;20.33;2.73;;;;;;;22.86;54.45;101345.56;7311361;19;128896;-38
2022/01/18 11:27:13;;;;;;;24.65;3.35;;;;;;;22.92;54.56;101335.47;7314632;19;130258;-39
2022/01/18 11:29:43;;;;;;;14.20;1.90;;;;;;;22.94;53.74;101338.03;7314512;19;129552;-38
2022/01/18 11:32:10;;;;;;;13.32;2.00;;;;;;;22.90;54.73;101340.00;7314790;19;128947;-42
2022/01/18 11:34:53;;;;;;;10.57;1.60;;;;;;;22.89;54.47;101337.50;7315534;19;129315;-36
2022/01/18 11:37:40;;;;;;;12.05;1.95;;;;;;;22.87;54.41;101342.81;7314829;19;130691;-33
2022/01/18 11:40:09;;;;;;;7.93;1.50;;;;;;;22.71;54.79;101325.66;7316117;19;129683;-31
2022/01/18 11:42:55;;;;;;;17.85;2.40;;;;;;;22.65;55.15;101320.81;7316696;19;129856;-42
2022/01/18 11:45:26;;;;;;;8.40;1.42;;;;;;;22.67;55.08;101334.66;7317904;19;130884;-38
2022/01/18 11:48:02;;;;;;;15.02;2.42;;;;;;;22.61;55.52;101341.16;7317941;19;129540;-35
2022/01/18 11:50:33;;;;;;;18.63;2.75;;;;;;;22.53;55.08;101339.97;7317198;19;130344;-43
2022/01/18 11:53:26;;;;;;;2.70;0.88;;;;;;;22.45;55.98;101339.63;7315671;19;130962;-34
2022/01/18 11:55:59;;;;;;;13.80;2.05;;;;;;;22.39;55.95;101337.44;7315539;19;129032;-36
2022/01/18 11:58:26;;;;;;;11.23;1.80;;;;;;;22.31;56.13;101343.19;7314507;19;129135;-33
2022/01/18 12:00:55;;;;;;;;;;;;;;;22.24;56.98;101351.53;7317275;19;129149;-32
2022/01/18 12:03:26;;;;;;;12.23;1.80;;;;;;;22.19;56.79;101344.00;7314634;19;129683;-41
2022/01/18 12:05:51;;;;;;;13.57;2.22;;;;;;;22.16;56.33;101348.59;7316954;19;130547;-42
2022/01/18 12:08:28;;;;;;;9.52;1.70;;;;;;;22.13;56.61;101343.56;7316123;19;130330;-36
2022/01/18 12:10:54;;;;;;;12.48;2.13;;;;;;;22.09;56.83;101345.53;7316782;19;130378;-33
2022/01/18 12:13:30;;;;;;;9.75;1.60;;;;;;;22.10;57.79;101338.53;7313884;19;129279;-40
2022/01/18 12:16:01;;;;;;;11.23;1.58;;;;;;;22.10;57.87;101341.16;7316931;19;129083;-37
2022/01/18 12:18:29;;;;;;;3.42;1.00;;;;;;;22.09;57.59;101342.91;7314603;19;130426;-33
2022/01/18 12:21:04;;;;;;;13.85;2.28;;;;;;;22.13;59.01;101330.47;7316848;19;129700;-36